sensor_id;sensor_type;location;lat;lon;timestamp;P1;durP1;ratioP1;P2;durP2;ratioP2
27706;SDS011;36332;51.384;0.040;2023-08-07T00:00:10;5.05;;;2.53;;
27706;SDS011;36332;51.384;0.040;2023-08-07T00:02:39;3.50;;;2.40;;
27706;SDS011;36332;51.384;0.040;2023-08-07T00:05:07;3.33;;;2.40;;
27706;SDS011;36332;51.384;0.040;2023-08-07T00:07:35;5.57;;;2.55;;
27706;SDS011;36332;51.384;0.040;2023-08-07T00:10:03;3.67;;;2.35;;
27706;SDS011;36332;51.384;0.040;2023-08-07T00:12:31;3.35;;;2.00;;
27706;SDS011;36332;51.384;0.040;2023-08-07T00:15:00;8.45;;;2.70;;
27706;SDS011;36332;51.384;0.040;2023-08-07T00:17:29;4.72;;;2.33;;
27706;SDS011;36332;51.384;0.040;2023-08-07T00:19:58;5.25;;;2.35;;
27706;SDS011;36332;51.384;0.040;2023-08-07T00:22:26;5.38;;;2.75;;
27706;SDS011;36332;51.384;0.040;2023-08-07T00:24:53;8.65;;;2.28;;
27706;SDS011;36332;51.384;0.040;2023-08-07T00:27:21;4.70;;;2.40;;
27706;SDS011;36332;51.384;0.040;2023-08-07T00:29:50;3.63;;;1.88;;
27706;SDS011;36332;51.384;0.040;2023-08-07T00:32:18;3.92;;;2.00;;
27706;SDS011;36332;51.384;0.040;2023-08-07T00:34:47;3.13;;;2.35;;
27706;SDS011;36332;51.384;0.040;2023-08-07T00:37:15;9.40;;;2.88;;
27706;SDS011;36332;51.384;0.040;2023-08-07T00:39:43;4.03;;;2.42;;
27706;SDS011;36332;51.384;0.040;2023-08-07T00:42:12;5.80;;;2.17;;
27706;SDS011;36332;51.384;0.040;2023-08-07T00:44:39;4.20;;;2.30;;
27706;SDS011;36332;51.384;0.040;2023-08-07T00:47:07;3.53;;;1.90;;
27706;SDS011;36332;51.384;0.040;2023-08-07T00:49:35;4.30;;;2.10;;
27706;SDS011;36332;51.384;0.040;2023-08-07T00:52:04;5.18;;;2.70;;
27706;SDS011;36332;51.384;0.040;2023-08-07T00:54:32;2.38;;;2.03;;
27706;SDS011;36332;51.384;0.040;2023-08-07T00:57:02;4.20;;;2.47;;
27706;SDS011;36332;51.384;0.040;2023-08-07T00:59:42;4.95;;;2.15;;
27706;SDS011;36332;51.384;0.040;2023-08-07T01:02:10;3.53;;;2.30;;
27706;SDS011;36332;51.384;0.040;2023-08-07T01:04:41;4.40;;;2.38;;
27706;SDS011;36332;51.384;0.040;2023-08-07T01:07:09;2.75;;;2.03;;
27706;SDS011;36332;51.384;0.040;2023-08-07T01:09:37;3.97;;;2.10;;
27706;SDS011;36332;51.384;0.040;2023-08-07T01:15:12;4.82;;;2.30;;
27706;SDS011;36332;51.384;0.040;2023-08-07T01:17:44;2.90;;;2.25;;
27706;SDS011;36332;51.384;0.040;2023-08-07T01:20:13;5.30;;;2.28;;
27706;SDS011;36332;51.384;0.040;2023-08-07T01:22:41;4.05;;;2.30;;
27706;SDS011;36332;51.384;0.040;2023-08-07T01:25:09;5.47;;;2.97;;
27706;SDS011;36332;51.384;0.040;2023-08-07T01:27:55;3.92;;;2.35;;
27706;SDS011;36332;51.384;0.040;2023-08-07T01:30:40;4.55;;;2.15;;
27706;SDS011;36332;51.384;0.040;2023-08-07T01:33:15;4.70;;;3.28;;
27706;SDS011;36332;51.384;0.040;2023-08-07T01:35:53;3.03;;;2.30;;
27706;SDS011;36332;51.384;0.040;2023-08-07T01:38:24;5.03;;;2.30;;
27706;SDS011;36332;51.384;0.040;2023-08-07T01:40:55;5.00;;;2.30;;
27706;SDS011;36332;51.384;0.040;2023-08-07T01:43:24;3.25;;;2.10;;
27706;SDS011;36332;51.384;0.040;2023-08-07T01:45:52;3.17;;;2.35;;
27706;SDS011;36332;51.384;0.040;2023-08-07T01:48:19;6.93;;;2.25;;
27706;SDS011;36332;51.384;0.040;2023-08-07T01:50:50;5.20;;;2.15;;
27706;SDS011;36332;51.384;0.040;2023-08-07T01:53:18;2.97;;;2.30;;
27706;SDS011;36332;51.384;0.040;2023-08-07T01:55:46;5.82;;;2.10;;
27706;SDS011;36332;51.384;0.040;2023-08-07T01:58:15;3.25;;;2.28;;
27706;SDS011;36332;51.384;0.040;2023-08-07T02:00:43;4.07;;;2.05;;
27706;SDS011;36332;51.384;0.040;2023-08-07T02:03:12;3.22;;;2.35;;
27706;SDS011;36332;51.384;0.040;2023-08-07T02:05:40;7.57;;;2.78;;
27706;SDS011;36332;51.384;0.040;2023-08-07T02:08:08;3.22;;;1.88;;
27706;SDS011;36332;51.384;0.040;2023-08-07T02:10:36;3.42;;;2.42;;
27706;SDS011;36332;51.384;0.040;2023-08-07T02:13:04;3.83;;;2.30;;
27706;SDS011;36332;51.384;0.040;2023-08-07T02:15:33;7.45;;;2.25;;
27706;SDS011;36332;51.384;0.040;2023-08-07T02:18:01;3.42;;;2.28;;
27706;SDS011;36332;51.384;0.040;2023-08-07T02:20:29;3.58;;;2.20;;
27706;SDS011;36332;51.384;0.040;2023-08-07T02:22:57;3.72;;;2.15;;
27706;SDS011;36332;51.384;0.040;2023-08-07T02:25:27;3.00;;;1.73;;
27706;SDS011;36332;51.384;0.040;2023-08-07T02:27:56;3.58;;;2.38;;
27706;SDS011;36332;51.384;0.040;2023-08-07T02:30:24;4.05;;;2.45;;
27706;SDS011;36332;51.384;0.040;2023-08-07T02:32:51;3.60;;;2.03;;
27706;SDS011;36332;51.384;0.040;2023-08-07T02:35:20;3.88;;;2.20;;
27706;SDS011;36332;51.384;0.040;2023-08-07T02:37:48;4.90;;;2.30;;
27706;SDS011;36332;51.384;0.040;2023-08-07T02:40:16;7.65;;;2.22;;
27706;SDS011;36332;51.384;0.040;2023-08-07T02:42:45;3.75;;;2.00;;
27706;SDS011;36332;51.384;0.040;2023-08-07T02:45:13;3.20;;;1.92;;
27706;SDS011;36332;51.384;0.040;2023-08-07T02:47:41;2.30;;;1.85;;
27706;SDS011;36332;51.384;0.040;2023-08-07T02:50:09;3.63;;;2.28;;
27706;SDS011;36332;51.384;0.040;2023-08-07T02:52:37;9.70;;;2.28;;
27706;SDS011;36332;51.384;0.040;2023-08-07T02:55:05;8.27;;;2.38;;
27706;SDS011;36332;51.384;0.040;2023-08-07T02:57:33;3.92;;;1.92;;
27706;SDS011;36332;51.384;0.040;2023-08-07T03:00:01;4.07;;;2.55;;
27706;SDS011;36332;51.384;0.040;2023-08-07T03:02:30;4.53;;;2.17;;
27706;SDS011;36332;51.384;0.040;2023-08-07T03:04:58;3.00;;;2.20;;
27706;SDS011;36332;51.384;0.040;2023-08-07T03:07:26;2.97;;;2.30;;
27706;SDS011;36332;51.384;0.040;2023-08-07T03:09:54;3.95;;;2.10;;
27706;SDS011;36332;51.384;0.040;2023-08-07T03:12:22;5.88;;;2.72;;
27706;SDS011;36332;51.384;0.040;2023-08-07T03:14:50;7.00;;;2.30;;
27706;SDS011;36332;51.384;0.040;2023-08-07T03:17:18;4.03;;;1.80;;
27706;SDS011;36332;51.384;0.040;2023-08-07T03:19:48;3.38;;;2.30;;
27706;SDS011;36332;51.384;0.040;2023-08-07T03:22:16;8.43;;;3.25;;
27706;SDS011;36332;51.384;0.040;2023-08-07T03:24:48;4.60;;;2.13;;
27706;SDS011;36332;51.384;0.040;2023-08-07T03:27:16;6.18;;;2.47;;
27706;SDS011;36332;51.384;0.040;2023-08-07T03:29:45;7.38;;;2.70;;
27706;SDS011;36332;51.384;0.040;2023-08-07T03:32:14;5.78;;;2.17;;
27706;SDS011;36332;51.384;0.040;2023-08-07T03:34:42;3.47;;;2.17;;
27706;SDS011;36332;51.384;0.040;2023-08-07T03:37:11;9.73;;;2.33;;
27706;SDS011;36332;51.384;0.040;2023-08-07T03:39:39;5.97;;;1.92;;
27706;SDS011;36332;51.384;0.040;2023-08-07T03:42:07;6.95;;;2.28;;
27706;SDS011;36332;51.384;0.040;2023-08-07T03:44:36;4.53;;;2.38;;
27706;SDS011;36332;51.384;0.040;2023-08-07T03:47:04;6.22;;;3.13;;
27706;SDS011;36332;51.384;0.040;2023-08-07T03:49:32;8.40;;;2.85;;
27706;SDS011;36332;51.384;0.040;2023-08-07T03:52:00;5.43;;;2.08;;
27706;SDS011;36332;51.384;0.040;2023-08-07T03:54:28;4.82;;;2.50;;
27706;SDS011;36332;51.384;0.040;2023-08-07T03:56:55;3.28;;;2.10;;
27706;SDS011;36332;51.384;0.040;2023-08-07T03:59:24;4.68;;;2.40;;
27706;SDS011;36332;51.384;0.040;2023-08-07T04:01:52;6.80;;;3.17;;
27706;SDS011;36332;51.384;0.040;2023-08-07T04:04:20;4.00;;;2.53;;
27706;SDS011;36332;51.384;0.040;2023-08-07T04:06:48;4.85;;;2.50;;
27706;SDS011;36332;51.384;0.040;2023-08-07T04:09:17;4.65;;;2.50;;
27706;SDS011;36332;51.384;0.040;2023-08-07T04:11:44;4.25;;;2.20;;
27706;SDS011;36332;51.384;0.040;2023-08-07T04:14:12;4.20;;;2.10;;
27706;SDS011;36332;51.384;0.040;2023-08-07T04:16:40;5.05;;;2.58;;
27706;SDS011;36332;51.384;0.040;2023-08-07T04:19:08;7.43;;;3.42;;
27706;SDS011;36332;51.384;0.040;2023-08-07T04:21:36;5.78;;;2.38;;
27706;SDS011;36332;51.384;0.040;2023-08-07T04:24:04;5.05;;;3.03;;
27706;SDS011;36332;51.384;0.040;2023-08-07T04:26:37;3.15;;;2.22;;
27706;SDS011;36332;51.384;0.040;2023-08-07T04:29:06;7.63;;;2.90;;
27706;SDS011;36332;51.384;0.040;2023-08-07T04:31:34;7.05;;;2.70;;
27706;SDS011;36332;51.384;0.040;2023-08-07T04:34:02;4.55;;;2.70;;
27706;SDS011;36332;51.384;0.040;2023-08-07T04:36:31;3.88;;;2.72;;
27706;SDS011;36332;51.384;0.040;2023-08-07T04:39:00;4.43;;;2.45;;
27706;SDS011;36332;51.384;0.040;2023-08-07T04:41:28;5.25;;;2.67;;
27706;SDS011;36332;51.384;0.040;2023-08-07T04:43:56;5.13;;;2.40;;
27706;SDS011;36332;51.384;0.040;2023-08-07T04:46:24;6.57;;;2.95;;
27706;SDS011;36332;51.384;0.040;2023-08-07T04:48:53;4.63;;;3.90;;
27706;SDS011;36332;51.384;0.040;2023-08-07T04:51:21;6.95;;;3.15;;
27706;SDS011;36332;51.384;0.040;2023-08-07T04:53:50;7.30;;;3.25;;
27706;SDS011;36332;51.384;0.040;2023-08-07T04:56:18;4.03;;;2.40;;
27706;SDS011;36332;51.384;0.040;2023-08-07T04:58:45;5.35;;;2.60;;
27706;SDS011;36332;51.384;0.040;2023-08-07T05:01:13;10.35;;;4.53;;
27706;SDS011;36332;51.384;0.040;2023-08-07T05:03:41;3.65;;;2.50;;
27706;SDS011;36332;51.384;0.040;2023-08-07T05:06:09;4.22;;;2.55;;
27706;SDS011;36332;51.384;0.040;2023-08-07T05:08:37;5.35;;;2.72;;
27706;SDS011;36332;51.384;0.040;2023-08-07T05:11:05;6.65;;;3.03;;
27706;SDS011;36332;51.384;0.040;2023-08-07T05:13:33;7.07;;;3.13;;
27706;SDS011;36332;51.384;0.040;2023-08-07T05:16:01;5.20;;;3.30;;
27706;SDS011;36332;51.384;0.040;2023-08-07T05:18:29;6.43;;;3.13;;
27706;SDS011;36332;51.384;0.040;2023-08-07T05:20:57;5.63;;;2.53;;
27706;SDS011;36332;51.384;0.040;2023-08-07T05:23:24;7.90;;;2.97;;
27706;SDS011;36332;51.384;0.040;2023-08-07T05:25:52;6.72;;;2.88;;
27706;SDS011;36332;51.384;0.040;2023-08-07T05:28:20;4.78;;;2.72;;
27706;SDS011;36332;51.384;0.040;2023-08-07T05:30:48;4.18;;;2.67;;
27706;SDS011;36332;51.384;0.040;2023-08-07T05:33:15;5.38;;;2.88;;
27706;SDS011;36332;51.384;0.040;2023-08-07T05:35:43;6.25;;;3.53;;
27706;SDS011;36332;51.384;0.040;2023-08-07T05:38:11;7.78;;;2.67;;
27706;SDS011;36332;51.384;0.040;2023-08-07T05:40:39;7.32;;;3.13;;
27706;SDS011;36332;51.384;0.040;2023-08-07T05:43:07;7.05;;;3.28;;
27706;SDS011;36332;51.384;0.040;2023-08-07T05:45:36;3.38;;;2.60;;
27706;SDS011;36332;51.384;0.040;2023-08-07T05:48:04;5.47;;;2.88;;
27706;SDS011;36332;51.384;0.040;2023-08-07T05:50:32;6.90;;;2.95;;
27706;SDS011;36332;51.384;0.040;2023-08-07T05:53:00;4.80;;;3.00;;
27706;SDS011;36332;51.384;0.040;2023-08-07T05:55:29;6.20;;;2.55;;
27706;SDS011;36332;51.384;0.040;2023-08-07T05:57:56;5.93;;;2.75;;
27706;SDS011;36332;51.384;0.040;2023-08-07T06:00:24;7.90;;;2.97;;
27706;SDS011;36332;51.384;0.040;2023-08-07T06:02:52;5.18;;;3.20;;
27706;SDS011;36332;51.384;0.040;2023-08-07T06:05:20;5.88;;;3.08;;
27706;SDS011;36332;51.384;0.040;2023-08-07T06:07:48;5.32;;;3.10;;
27706;SDS011;36332;51.384;0.040;2023-08-07T06:10:16;4.95;;;3.25;;
27706;SDS011;36332;51.384;0.040;2023-08-07T06:12:44;6.68;;;2.83;;
27706;SDS011;36332;51.384;0.040;2023-08-07T06:15:12;7.47;;;3.10;;
27706;SDS011;36332;51.384;0.040;2023-08-07T06:17:39;8.57;;;3.15;;
27706;SDS011;36332;51.384;0.040;2023-08-07T06:20:07;4.95;;;2.80;;
27706;SDS011;36332;51.384;0.040;2023-08-07T06:22:38;9.73;;;3.47;;
27706;SDS011;36332;51.384;0.040;2023-08-07T06:25:06;8.68;;;2.83;;
27706;SDS011;36332;51.384;0.040;2023-08-07T06:27:35;6.80;;;3.40;;
27706;SDS011;36332;51.384;0.040;2023-08-07T06:30:03;3.95;;;2.92;;
27706;SDS011;36332;51.384;0.040;2023-08-07T06:32:31;8.07;;;2.92;;
27706;SDS011;36332;51.384;0.040;2023-08-07T06:35:00;5.60;;;2.83;;
27706;SDS011;36332;51.384;0.040;2023-08-07T06:37:28;8.75;;;2.97;;
27706;SDS011;36332;51.384;0.040;2023-08-07T06:39:56;5.63;;;2.65;;
27706;SDS011;36332;51.384;0.040;2023-08-07T06:42:24;8.73;;;2.97;;
27706;SDS011;36332;51.384;0.040;2023-08-07T06:44:52;8.40;;;3.15;;
27706;SDS011;36332;51.384;0.040;2023-08-07T06:47:20;4.25;;;2.60;;
27706;SDS011;36332;51.384;0.040;2023-08-07T06:49:48;9.63;;;2.72;;
27706;SDS011;36332;51.384;0.040;2023-08-07T06:52:16;7.80;;;3.17;;
27706;SDS011;36332;51.384;0.040;2023-08-07T06:54:44;16.17;;;3.13;;
27706;SDS011;36332;51.384;0.040;2023-08-07T06:57:12;3.70;;;2.40;;
27706;SDS011;36332;51.384;0.040;2023-08-07T06:59:40;7.72;;;3.33;;
27706;SDS011;36332;51.384;0.040;2023-08-07T07:02:08;5.53;;;2.55;;
27706;SDS011;36332;51.384;0.040;2023-08-07T07:04:36;4.65;;;2.65;;
27706;SDS011;36332;51.384;0.040;2023-08-07T07:07:04;6.93;;;3.22;;
27706;SDS011;36332;51.384;0.040;2023-08-07T07:09:32;7.72;;;2.53;;
27706;SDS011;36332;51.384;0.040;2023-08-07T07:12:00;6.03;;;3.20;;
27706;SDS011;36332;51.384;0.040;2023-08-07T07:14:28;8.13;;;2.83;;
27706;SDS011;36332;51.384;0.040;2023-08-07T07:16:56;6.50;;;2.65;;
27706;SDS011;36332;51.384;0.040;2023-08-07T07:19:24;6.25;;;2.47;;
27706;SDS011;36332;51.384;0.040;2023-08-07T07:21:51;9.30;;;2.75;;
27706;SDS011;36332;51.384;0.040;2023-08-07T07:24:20;7.38;;;2.97;;
27706;SDS011;36332;51.384;0.040;2023-08-07T07:26:48;3.58;;;2.47;;
27706;SDS011;36332;51.384;0.040;2023-08-07T07:29:17;10.10;;;2.80;;
27706;SDS011;36332;51.384;0.040;2023-08-07T07:31:45;7.70;;;3.55;;
27706;SDS011;36332;51.384;0.040;2023-08-07T07:34:14;4.97;;;2.67;;
27706;SDS011;36332;51.384;0.040;2023-08-07T07:36:42;5.15;;;2.80;;
27706;SDS011;36332;51.384;0.040;2023-08-07T07:39:09;4.88;;;2.72;;
27706;SDS011;36332;51.384;0.040;2023-08-07T07:41:37;9.18;;;2.38;;
27706;SDS011;36332;51.384;0.040;2023-08-07T07:44:05;6.38;;;2.95;;
27706;SDS011;36332;51.384;0.040;2023-08-07T07:46:33;3.58;;;2.28;;
27706;SDS011;36332;51.384;0.040;2023-08-07T07:49:01;7.68;;;2.42;;
27706;SDS011;36332;51.384;0.040;2023-08-07T07:51:31;13.23;;;2.80;;
27706;SDS011;36332;51.384;0.040;2023-08-07T07:53:58;7.40;;;2.28;;
27706;SDS011;36332;51.384;0.040;2023-08-07T07:56:40;5.82;;;3.03;;
27706;SDS011;36332;51.384;0.040;2023-08-07T07:59:08;7.78;;;2.80;;
27706;SDS011;36332;51.384;0.040;2023-08-07T08:01:36;5.80;;;2.67;;
27706;SDS011;36332;51.384;0.040;2023-08-07T08:04:04;4.03;;;1.80;;
27706;SDS011;36332;51.384;0.040;2023-08-07T08:06:32;7.80;;;2.08;;
27706;SDS011;36332;51.384;0.040;2023-08-07T08:09:00;9.57;;;2.53;;
27706;SDS011;36332;51.384;0.040;2023-08-07T08:11:31;7.82;;;2.75;;
27706;SDS011;36332;51.384;0.040;2023-08-07T08:13:59;5.55;;;2.13;;
27706;SDS011;36332;51.384;0.040;2023-08-07T08:16:27;5.90;;;2.20;;
27706;SDS011;36332;51.384;0.040;2023-08-07T08:18:54;5.75;;;2.35;;
27706;SDS011;36332;51.384;0.040;2023-08-07T08:21:22;7.47;;;2.35;;
27706;SDS011;36332;51.384;0.040;2023-08-07T08:23:50;6.40;;;2.55;;
27706;SDS011;36332;51.384;0.040;2023-08-07T08:26:18;7.05;;;2.72;;
27706;SDS011;36332;51.384;0.040;2023-08-07T08:28:46;4.53;;;2.10;;
27706;SDS011;36332;51.384;0.040;2023-08-07T08:31:13;5.05;;;1.67;;
27706;SDS011;36332;51.384;0.040;2023-08-07T08:33:41;6.38;;;1.88;;
27706;SDS011;36332;51.384;0.040;2023-08-07T08:36:09;7.95;;;2.80;;
27706;SDS011;36332;51.384;0.040;2023-08-07T08:38:37;4.38;;;2.22;;
27706;SDS011;36332;51.384;0.040;2023-08-07T08:41:05;9.70;;;2.00;;
27706;SDS011;36332;51.384;0.040;2023-08-07T08:43:36;6.78;;;1.88;;
27706;SDS011;36332;51.384;0.040;2023-08-07T08:46:07;5.80;;;1.70;;
27706;SDS011;36332;51.384;0.040;2023-08-07T08:48:39;9.07;;;2.05;;
27706;SDS011;36332;51.384;0.040;2023-08-07T08:51:10;2.72;;;1.85;;
27706;SDS011;36332;51.384;0.040;2023-08-07T08:53:39;9.20;;;2.65;;
27706;SDS011;36332;51.384;0.040;2023-08-07T08:56:06;5.38;;;1.83;;
27706;SDS011;36332;51.384;0.040;2023-08-07T08:58:34;8.27;;;2.15;;
27706;SDS011;36332;51.384;0.040;2023-08-07T09:01:02;3.38;;;1.52;;
27706;SDS011;36332;51.384;0.040;2023-08-07T09:03:31;4.28;;;1.38;;
27706;SDS011;36332;51.384;0.040;2023-08-07T09:05:59;8.32;;;1.92;;
27706;SDS011;36332;51.384;0.040;2023-08-07T09:08:27;5.85;;;1.35;;
27706;SDS011;36332;51.384;0.040;2023-08-07T09:21:57;5.75;;;1.83;;
27706;SDS011;36332;51.384;0.040;2023-08-07T09:27:26;5.05;;;1.80;;
27706;SDS011;36332;51.384;0.040;2023-08-07T09:29:55;5.03;;;1.70;;
27706;SDS011;36332;51.384;0.040;2023-08-07T09:32:23;2.80;;;1.35;;
27706;SDS011;36332;51.384;0.040;2023-08-07T09:34:51;3.03;;;1.33;;
27706;SDS011;36332;51.384;0.040;2023-08-07T09:37:19;4.50;;;1.55;;
27706;SDS011;36332;51.384;0.040;2023-08-07T09:39:46;5.45;;;1.85;;
27706;SDS011;36332;51.384;0.040;2023-08-07T09:42:15;3.22;;;1.20;;
27706;SDS011;36332;51.384;0.040;2023-08-07T09:44:43;3.35;;;1.33;;
27706;SDS011;36332;51.384;0.040;2023-08-07T09:47:16;3.38;;;1.23;;
27706;SDS011;36332;51.384;0.040;2023-08-07T09:49:45;3.40;;;1.50;;
27706;SDS011;36332;51.384;0.040;2023-08-07T09:52:13;6.22;;;1.20;;
27706;SDS011;36332;51.384;0.040;2023-08-07T09:54:42;3.17;;;1.17;;
27706;SDS011;36332;51.384;0.040;2023-08-07T09:57:10;3.75;;;1.10;;
27706;SDS011;36332;51.384;0.040;2023-08-07T09:59:37;7.88;;;1.20;;
27706;SDS011;36332;51.384;0.040;2023-08-07T10:02:05;1.00;;;0.90;;
27706;SDS011;36332;51.384;0.040;2023-08-07T10:04:34;1.50;;;0.82;;
27706;SDS011;36332;51.384;0.040;2023-08-07T10:07:02;2.40;;;1.10;;
27706;SDS011;36332;51.384;0.040;2023-08-07T10:09:30;2.38;;;1.30;;
27706;SDS011;36332;51.384;0.040;2023-08-07T10:11:59;4.10;;;1.13;;
27706;SDS011;36332;51.384;0.040;2023-08-07T10:14:27;1.92;;;0.98;;
27706;SDS011;36332;51.384;0.040;2023-08-07T10:16:56;9.85;;;1.67;;
27706;SDS011;36332;51.384;0.040;2023-08-07T10:19:25;3.25;;;1.35;;
27706;SDS011;36332;51.384;0.040;2023-08-07T10:21:53;9.20;;;1.83;;
27706;SDS011;36332;51.384;0.040;2023-08-07T10:24:21;2.20;;;1.23;;
27706;SDS011;36332;51.384;0.040;2023-08-07T10:26:50;4.15;;;1.40;;
27706;SDS011;36332;51.384;0.040;2023-08-07T10:29:19;5.47;;;2.80;;
27706;SDS011;36332;51.384;0.040;2023-08-07T10:31:51;2.65;;;1.20;;
27706;SDS011;36332;51.384;0.040;2023-08-07T10:34:21;1.77;;;1.10;;
27706;SDS011;36332;51.384;0.040;2023-08-07T10:36:49;5.82;;;1.67;;
27706;SDS011;36332;51.384;0.040;2023-08-07T10:39:17;3.90;;;1.27;;
27706;SDS011;36332;51.384;0.040;2023-08-07T10:41:45;2.40;;;1.23;;
27706;SDS011;36332;51.384;0.040;2023-08-07T10:44:19;4.32;;;1.15;;
27706;SDS011;36332;51.384;0.040;2023-08-07T10:46:58;3.40;;;1.45;;
27706;SDS011;36332;51.384;0.040;2023-08-07T10:52:04;2.70;;;1.23;;
27706;SDS011;36332;51.384;0.040;2023-08-07T10:54:45;4.78;;;1.15;;
27706;SDS011;36332;51.384;0.040;2023-08-07T10:57:16;3.75;;;1.50;;
27706;SDS011;36332;51.384;0.040;2023-08-07T11:02:24;6.20;;;1.48;;
27706;SDS011;36332;51.384;0.040;2023-08-07T11:04:55;2.05;;;1.17;;
27706;SDS011;36332;51.384;0.040;2023-08-07T11:07:28;4.13;;;1.40;;
27706;SDS011;36332;51.384;0.040;2023-08-07T11:09:57;4.53;;;1.60;;
27706;SDS011;36332;51.384;0.040;2023-08-07T11:12:26;3.65;;;1.50;;
27706;SDS011;36332;51.384;0.040;2023-08-07T11:14:55;2.83;;;1.13;;
27706;SDS011;36332;51.384;0.040;2023-08-07T11:17:27;3.70;;;1.60;;
27706;SDS011;36332;51.384;0.040;2023-08-07T11:19:56;2.60;;;1.40;;
27706;SDS011;36332;51.384;0.040;2023-08-07T11:22:24;3.30;;;1.48;;
27706;SDS011;36332;51.384;0.040;2023-08-07T11:24:54;2.80;;;1.30;;
27706;SDS011;36332;51.384;0.040;2023-08-07T11:27:21;2.83;;;1.20;;
27706;SDS011;36332;51.384;0.040;2023-08-07T11:29:50;2.05;;;1.38;;
27706;SDS011;36332;51.384;0.040;2023-08-07T11:32:18;3.58;;;1.58;;
27706;SDS011;36332;51.384;0.040;2023-08-07T11:34:48;5.85;;;1.50;;
27706;SDS011;36332;51.384;0.040;2023-08-07T11:37:19;3.97;;;1.50;;
27706;SDS011;36332;51.384;0.040;2023-08-07T11:39:48;3.03;;;1.27;;
27706;SDS011;36332;51.384;0.040;2023-08-07T11:42:15;6.88;;;1.63;;
27706;SDS011;36332;51.384;0.040;2023-08-07T11:44:43;4.75;;;1.25;;
27706;SDS011;36332;51.384;0.040;2023-08-07T11:47:12;4.15;;;1.00;;
27706;SDS011;36332;51.384;0.040;2023-08-07T11:49:40;4.40;;;1.23;;
27706;SDS011;36332;51.384;0.040;2023-08-07T11:52:13;7.38;;;1.30;;
27706;SDS011;36332;51.384;0.040;2023-08-07T11:54:46;2.83;;;1.13;;
27706;SDS011;36332;51.384;0.040;2023-08-07T11:57:15;3.05;;;1.15;;
27706;SDS011;36332;51.384;0.040;2023-08-07T11:59:47;5.25;;;1.30;;
27706;SDS011;36332;51.384;0.040;2023-08-07T12:02:15;3.15;;;1.27;;
27706;SDS011;36332;51.384;0.040;2023-08-07T12:04:43;4.05;;;1.20;;
27706;SDS011;36332;51.384;0.040;2023-08-07T12:07:11;4.93;;;1.20;;
27706;SDS011;36332;51.384;0.040;2023-08-07T12:09:44;4.13;;;1.20;;
27706;SDS011;36332;51.384;0.040;2023-08-07T12:12:11;2.72;;;1.05;;
27706;SDS011;36332;51.384;0.040;2023-08-07T12:14:39;2.40;;;0.95;;
27706;SDS011;36332;51.384;0.040;2023-08-07T12:17:10;3.00;;;1.20;;
27706;SDS011;36332;51.384;0.040;2023-08-07T12:19:38;4.50;;;1.77;;
27706;SDS011;36332;51.384;0.040;2023-08-07T12:22:07;6.97;;;1.52;;
27706;SDS011;36332;51.384;0.040;2023-08-07T12:24:36;3.10;;;1.30;;
27706;SDS011;36332;51.384;0.040;2023-08-07T12:27:04;3.38;;;1.00;;
27706;SDS011;36332;51.384;0.040;2023-08-07T12:29:32;4.45;;;1.63;;
27706;SDS011;36332;51.384;0.040;2023-08-07T12:31:59;4.00;;;1.63;;
27706;SDS011;36332;51.384;0.040;2023-08-07T12:34:29;1.95;;;1.25;;
27706;SDS011;36332;51.384;0.040;2023-08-07T12:37:00;3.75;;;1.40;;
27706;SDS011;36332;51.384;0.040;2023-08-07T12:39:28;3.85;;;1.33;;
27706;SDS011;36332;51.384;0.040;2023-08-07T12:41:58;2.75;;;1.40;;
27706;SDS011;36332;51.384;0.040;2023-08-07T12:44:29;4.32;;;1.45;;
27706;SDS011;36332;51.384;0.040;2023-08-07T12:46:56;3.42;;;1.50;;
27706;SDS011;36332;51.384;0.040;2023-08-07T12:49:25;3.75;;;1.52;;
27706;SDS011;36332;51.384;0.040;2023-08-07T12:51:53;3.20;;;1.83;;
27706;SDS011;36332;51.384;0.040;2023-08-07T12:54:21;2.97;;;1.33;;
27706;SDS011;36332;51.384;0.040;2023-08-07T12:56:49;7.88;;;1.73;;
27706;SDS011;36332;51.384;0.040;2023-08-07T12:59:16;2.95;;;1.40;;
27706;SDS011;36332;51.384;0.040;2023-08-07T13:01:45;4.82;;;1.30;;
27706;SDS011;36332;51.384;0.040;2023-08-07T13:04:13;3.78;;;1.35;;
27706;SDS011;36332;51.384;0.040;2023-08-07T13:06:42;4.15;;;1.58;;
27706;SDS011;36332;51.384;0.040;2023-08-07T13:09:10;4.28;;;1.65;;
27706;SDS011;36332;51.384;0.040;2023-08-07T13:11:38;2.67;;;1.50;;
27706;SDS011;36332;51.384;0.040;2023-08-07T13:14:05;1.92;;;1.50;;
27706;SDS011;36332;51.384;0.040;2023-08-07T13:16:33;3.58;;;1.58;;
27706;SDS011;36332;51.384;0.040;2023-08-07T13:19:01;3.35;;;1.20;;
27706;SDS011;36332;51.384;0.040;2023-08-07T13:21:32;4.22;;;1.70;;
27706;SDS011;36332;51.384;0.040;2023-08-07T13:23:59;6.15;;;1.88;;
27706;SDS011;36332;51.384;0.040;2023-08-07T13:26:27;6.93;;;1.85;;
27706;SDS011;36332;51.384;0.040;2023-08-07T13:28:55;6.35;;;1.50;;
27706;SDS011;36332;51.384;0.040;2023-08-07T13:31:22;2.83;;;1.42;;
27706;SDS011;36332;51.384;0.040;2023-08-07T13:33:51;2.95;;;1.63;;
27706;SDS011;36332;51.384;0.040;2023-08-07T13:36:18;2.63;;;1.33;;
27706;SDS011;36332;51.384;0.040;2023-08-07T13:38:46;3.03;;;1.23;;
27706;SDS011;36332;51.384;0.040;2023-08-07T13:41:14;1.80;;;1.25;;
27706;SDS011;36332;51.384;0.040;2023-08-07T13:43:41;3.30;;;1.30;;
27706;SDS011;36332;51.384;0.040;2023-08-07T13:46:09;2.95;;;1.58;;
27706;SDS011;36332;51.384;0.040;2023-08-07T13:48:37;4.18;;;1.25;;
27706;SDS011;36332;51.384;0.040;2023-08-07T13:51:04;3.13;;;1.52;;
27706;SDS011;36332;51.384;0.040;2023-08-07T13:53:34;2.67;;;1.38;;
27706;SDS011;36332;51.384;0.040;2023-08-07T13:56:02;3.85;;;1.30;;
27706;SDS011;36332;51.384;0.040;2023-08-07T13:58:29;2.42;;;1.50;;
27706;SDS011;36332;51.384;0.040;2023-08-07T14:00:57;1.50;;;1.20;;
27706;SDS011;36332;51.384;0.040;2023-08-07T14:03:25;1.48;;;1.10;;
27706;SDS011;36332;51.384;0.040;2023-08-07T14:05:53;2.40;;;1.35;;
27706;SDS011;36332;51.384;0.040;2023-08-07T14:08:20;6.50;;;1.67;;
27706;SDS011;36332;51.384;0.040;2023-08-07T14:10:48;4.45;;;1.55;;
27706;SDS011;36332;51.384;0.040;2023-08-07T14:13:16;5.35;;;1.58;;
27706;SDS011;36332;51.384;0.040;2023-08-07T14:15:44;2.33;;;1.40;;
27706;SDS011;36332;51.384;0.040;2023-08-07T14:18:12;3.35;;;1.48;;
27706;SDS011;36332;51.384;0.040;2023-08-07T14:20:41;3.47;;;1.58;;
27706;SDS011;36332;51.384;0.040;2023-08-07T14:25:59;6.55;;;1.73;;
27706;SDS011;36332;51.384;0.040;2023-08-07T14:28:28;4.28;;;1.55;;
27706;SDS011;36332;51.384;0.040;2023-08-07T14:30:59;5.47;;;1.75;;
27706;SDS011;36332;51.384;0.040;2023-08-07T14:33:28;1.98;;;1.27;;
27706;SDS011;36332;51.384;0.040;2023-08-07T14:35:56;3.55;;;1.30;;
27706;SDS011;36332;51.384;0.040;2023-08-07T14:38:24;2.30;;;1.38;;
27706;SDS011;36332;51.384;0.040;2023-08-07T14:40:51;3.00;;;1.27;;
27706;SDS011;36332;51.384;0.040;2023-08-07T14:43:20;4.28;;;1.35;;
27706;SDS011;36332;51.384;0.040;2023-08-07T14:45:48;2.65;;;1.45;;
27706;SDS011;36332;51.384;0.040;2023-08-07T14:48:16;5.35;;;1.13;;
27706;SDS011;36332;51.384;0.040;2023-08-07T14:50:44;2.38;;;1.08;;
27706;SDS011;36332;51.384;0.040;2023-08-07T14:53:11;4.40;;;1.30;;
27706;SDS011;36332;51.384;0.040;2023-08-07T14:55:39;1.45;;;1.02;;
27706;SDS011;36332;51.384;0.040;2023-08-07T14:58:06;3.45;;;1.42;;
27706;SDS011;36332;51.384;0.040;2023-08-07T15:00:34;4.32;;;1.88;;
27706;SDS011;36332;51.384;0.040;2023-08-07T15:03:02;3.88;;;1.30;;
27706;SDS011;36332;51.384;0.040;2023-08-07T15:05:30;4.10;;;1.73;;
27706;SDS011;36332;51.384;0.040;2023-08-07T15:07:59;2.83;;;1.67;;
27706;SDS011;36332;51.384;0.040;2023-08-07T15:10:28;2.22;;;1.10;;
27706;SDS011;36332;51.384;0.040;2023-08-07T15:12:56;2.47;;;1.38;;
27706;SDS011;36332;51.384;0.040;2023-08-07T15:15:25;5.75;;;1.48;;
27706;SDS011;36332;51.384;0.040;2023-08-07T15:17:53;5.25;;;1.75;;
27706;SDS011;36332;51.384;0.040;2023-08-07T15:20:20;4.25;;;1.48;;